Time;durP1;ratioP1;P1;durP2;ratioP2;P2;SDS_P1;SDS_P2;PMS_P1;PMS_P2;Temp;Humidity;BMP_temperature;BMP_pressure;BME280_temperature;BME280_humidity;BME280_pressure;Samples;Min_cycle;Max_cycle;Signal;HPM_P1;HPM_P2
2022/11/15 00:01:17;;;;;;;11.48;4.75;;;15.70;99.90;;;;;;5092754;28;20027;-74
2022/11/15 00:03:45;;;;;;;13.70;5.00;;;15.70;99.90;;;;;;5111660;28;20016;-73
2022/11/15 00:06:12;;;;;;;11.75;5.05;;;15.70;99.90;;;;;;5111285;28;20100;-73
2022/11/15 00:08:38;;;;;;;11.18;4.82;;;15.70;99.90;;;;;;5111083;28;20024;-73
2022/11/15 00:11:05;;;;;;;13.37;5.10;;;15.60;99.90;;;;;;5111245;28;20043;-72
2022/11/15 00:13:31;;;;;;;16.45;5.57;;;15.60;99.90;;;;;;5111362;28;20286;-73
2022/11/15 00:15:59;;;;;;;12.43;4.63;;;15.60;99.90;;;;;;5111509;28;20341;-74
2022/11/15 00:18:29;;;;;;;10.50;4.70;;;15.60;99.90;;;;;;5110917;28;20112;-73
2022/11/15 00:21:02;;;;;;;13.70;5.20;;;15.60;99.90;;;;;;5110994;28;20019;-73
2022/11/15 00:23:28;;;;;;;9.88;5.00;;;15.60;99.90;;;;;;5113870;28;20078;-73
2022/11/15 00:26:00;;;;;;;9.40;4.80;;;15.60;99.90;;;;;;5114819;28;20063;-74
2022/11/15 00:28:26;;;;;;;10.05;4.88;;;15.60;99.90;;;;;;5114709;28;20732;-73
2022/11/15 00:30:54;;;;;;;8.07;4.22;;;15.50;99.90;;;;;;5114539;28;20435;-73
2022/11/15 00:33:20;;;;;;;10.50;4.68;;;15.50;99.90;;;;;;5096066;28;20039;-73
2022/11/15 00:35:49;;;;;;;12.05;5.13;;;15.50;99.90;;;;;;5114764;28;20032;-73
2022/11/15 00:38:16;;;;;;;8.93;4.65;;;15.50;99.90;;;;;;5095968;28;20035;-73
2022/11/15 00:40:42;;;;;;;;;;;15.40;99.90;;;;;;5114874;28;20125;-73
2022/11/15 00:43:08;;;;;;;10.02;4.20;;;15.40;99.90;;;;;;5095828;28;19908;-73
2022/11/15 00:45:34;;;;;;;;;;;15.30;99.90;;;;;;5114921;28;20182;-73
2022/11/15 00:48:00;;;;;;;9.20;4.60;;;15.30;99.90;;;;;;5114305;28;19955;-73
2022/11/15 00:50:27;;;;;;;10.93;4.37;;;15.30;99.90;;;;;;5114457;28;20153;-73
2022/11/15 00:52:53;;;;;;;9.43;4.80;;;15.30;99.90;;;;;;5096310;28;20054;-74
2022/11/15 00:55:19;;;;;;;9.57;4.70;;;15.30;99.90;;;;;;5114014;28;20016;-73
2022/11/15 00:57:48;;;;;;;13.05;4.70;;;15.20;99.90;;;;;;5113966;28;20059;-74
2022/11/15 01:00:14;;;;;;;13.32;5.13;;;15.20;99.90;;;;;;5095842;28;20067;-74
2022/11/15 01:02:40;;;;;;;9.45;4.85;;;15.20;99.90;;;;;;5113582;28;20023;-73
2022/11/15 01:05:07;;;;;;;8.95;4.47;;;15.20;99.90;;;;;;5113721;28;20031;-73
2022/11/15 01:07:33;;;;;;;10.75;4.65;;;15.20;99.90;;;;;;5113891;28;20024;-73
2022/11/15 01:09:59;;;;;;;8.60;5.35;;;15.20;99.90;;;;;;5113403;28;20020;-73
2022/11/15 01:12:25;;;;;;;11.00;4.67;;;15.10;99.90;;;;;;5094866;28;20463;-73
2022/11/15 01:14:53;;;;;;;10.17;4.73;;;15.10;99.90;;;;;;5113858;28;20146;-73
2022/11/15 01:17:19;;;;;;;7.88;4.07;;;15.10;99.90;;;;;;5113297;28;20043;-73
2022/11/15 01:19:45;;;;;;;5.78;3.78;;;15.00;99.90;;;;;;5113687;28;20019;-73
2022/11/15 01:22:15;;;;;;;10.57;5.10;;;15.10;99.90;;;;;;5113341;28;20070;-73
2022/11/15 01:24:42;;;;;;;12.45;4.60;;;15.00;99.90;;;;;;5112849;28;20058;-73
2022/11/15 01:27:11;;;;;;;7.97;4.57;;;15.00;99.90;;;;;;5113254;28;20027;-73
2022/11/15 01:29:40;;;;;;;12.52;4.90;;;14.90;99.90;;;;;;5094659;28;20061;-72
2022/11/15 01:32:07;;;;;;;10.25;4.97;;;14.90;99.90;;;;;;5094326;28;20196;-73
2022/11/15 01:34:33;;;;;;;11.75;5.35;;;14.90;99.90;;;;;;5112044;28;20024;-73
2022/11/15 01:37:01;;;;;;;8.90;4.75;;;14.90;99.90;;;;;;5112788;28;20442;-73
2022/11/15 01:39:27;;;;;;;;;;;14.90;99.90;;;;;;5113468;28;20228;-73
2022/11/15 01:41:53;;;;;;;14.98;6.35;;;14.80;99.90;;;;;;5113026;28;20410;-73
2022/11/15 01:44:48;;;;;;;10.82;4.63;;;14.90;99.90;;;;;;5094279;28;20383;-74
2022/11/15 01:47:33;;;;;;;8.30;4.75;;;14.90;99.90;;;;;;5112893;28;20170;-73
2022/11/15 01:50:04;;;;;;;7.35;3.92;;;14.90;99.90;;;;;;5113181;28;20126;-73
2022/11/15 01:52:32;;;;;;;13.60;4.45;;;14.90;99.90;;;;;;5094270;28;20035;-73
2022/11/15 01:55:09;;;;;;;14.15;4.15;;;14.80;99.90;;;;;;5112582;28;20475;-73
2022/11/15 01:57:36;;;;;;;11.25;4.40;;;14.80;99.90;;;;;;5112894;28;20080;-73
2022/11/15 02:00:04;;;;;;;7.45;4.13;;;14.80;99.90;;;;;;5112971;28;20019;-73
2022/11/15 02:02:32;;;;;;;7.47;4.57;;;14.80;99.90;;;;;;5112615;28;20475;-72
2022/11/15 02:05:01;;;;;;;8.77;4.78;;;14.80;99.90;;;;;;5113105;28;20145;-72
2022/11/15 02:07:31;;;;;;;7.10;4.22;;;14.70;99.90;;;;;;5094240;28;20470;-72
2022/11/15 02:10:06;;;;;;;8.73;4.60;;;14.70;99.90;;;;;;5112243;28;20107;-73
2022/11/15 02:12:33;;;;;;;10.13;4.90;;;14.70;99.90;;;;;;5093678;28;20122;-73
2022/11/15 02:15:02;;;;;;;10.48;4.88;;;14.70;99.90;;;;;;5112347;28;20409;-73
2022/11/15 02:17:34;;;;;;;10.52;4.80;;;14.70;99.90;;;;;;5112457;28;20028;-73
2022/11/15 02:20:34;;;;;;;8.00;4.20;;;14.70;99.90;;;;;;5112325;28;20150;-73
2022/11/15 02:23:03;;;;;;;9.57;4.50;;;14.70;99.90;;;;;;5112487;28;20117;-74
2022/11/15 02:25:56;;;;;;;10.65;4.32;;;14.70;99.90;;;;;;5111902;28;20039;-73
2022/11/15 02:28:48;;;;;;;8.40;4.18;;;14.70;99.90;;;;;;5112131;28;20035;-73
2022/11/15 02:31:50;;;;;;;7.28;3.83;;;14.80;99.90;;;;;;5110032;28;20363;-73
2022/11/15 02:34:39;;;;;;;6.32;4.13;;;14.80;99.90;;;;;;5111991;28;20035;-73
2022/11/15 02:37:30;;;;;;;8.73;3.60;;;14.80;99.90;;;;;;5112237;28;20023;-72
2022/11/15 02:40:37;;;;;;;11.27;4.53;;;14.90;99.90;;;;;;5111789;28;20020;-73
2022/11/15 02:49:32;;;;;;;10.23;4.22;;;15.00;99.90;;;;;;5112019;28;20039;-73
2022/11/15 02:51:59;;;;;;;6.55;3.45;;;14.90;99.90;;;;;;5111792;28;20161;-73
2022/11/15 02:54:31;;;;;;;6.93;3.88;;;14.80;99.90;;;;;;5111223;28;20024;-72
2022/11/15 02:57:10;;;;;;;8.77;3.70;;;14.80;99.90;;;;;;5111274;28;20031;-73
2022/11/15 02:59:57;;;;;;;8.05;3.50;;;14.70;99.90;;;;;;5111701;28;20116;-73
2022/11/15 03:02:29;;;;;;;6.88;3.85;;;14.70;99.90;;;;;;5107380;27;20097;-73
2022/11/15 03:05:19;;;;;;;8.48;3.60;;;14.70;99.90;;;;;;5091548;28;20118;-74
2022/11/15 03:08:11;;;;;;;12.90;4.30;;;14.60;99.90;;;;;;5110882;28;20039;-73
2022/11/15 03:11:03;;;;;;;7.68;4.45;;;14.60;99.90;;;;;;5064671;28;20495;-73
2022/11/15 03:13:44;;;;;;;13.23;4.57;;;14.60;99.90;;;;;;5111681;28;20023;-73
2022/11/15 03:16:29;;;;;;;7.90;3.70;;;14.60;99.90;;;;;;5111947;28;20028;-74
2022/11/15 03:19:16;;;;;;;11.68;3.70;;;14.60;99.90;;;;;;5110591;28;20463;-73
2022/11/15 03:21:44;;;;;;;8.75;4.20;;;14.70;99.90;;;;;;5109256;28;20020;-74
2022/11/15 03:24:14;;;;;;;8.57;3.83;;;14.70;99.90;;;;;;5104918;28;20052;-71
2022/11/15 03:26:46;;;;;;;8.40;3.90;;;14.70;99.90;;;;;;5101092;28;20537;-69
2022/11/15 03:29:26;;;;;;;7.63;3.67;;;14.70;99.90;;;;;;5112571;28;20146;-73
2022/11/15 03:32:00;;;;;;;8.60;3.90;;;14.70;99.90;;;;;;5115920;28;20065;-75
2022/11/15 03:34:34;;;;;;;8.00;3.30;;;14.70;99.90;;;;;;5111269;28;20030;-69
2022/11/15 03:37:01;;;;;;;8.25;3.50;;;14.70;99.90;;;;;;5093447;28;20035;-73
2022/11/15 03:39:29;;;;;;;9.57;3.78;;;14.70;99.90;;;;;;5122530;28;20015;-70
2022/11/15 03:42:28;;;;;;;5.35;3.75;;;14.80;99.90;;;;;;5090869;28;20028;-72
2022/11/15 03:45:47;;;;;;;6.85;3.50;;;14.70;99.90;;;;;;5014819;28;20062;-73
2022/11/15 03:48:36;;;;;;;7.18;3.20;;;14.80;99.90;;;;;;4958706;28;20100;-73
2022/11/15 03:51:04;;;;;;;6.30;3.75;;;14.70;99.90;;;;;;4969728;28;20130;-73
2022/11/15 03:53:31;;;;;;;8.93;3.22;;;14.70;99.90;;;;;;4969620;28;20054;-73
2022/11/15 03:55:58;;;;;;;7.63;3.42;;;14.70;99.90;;;;;;4953353;28;20495;-73
2022/11/15 03:58:24;;;;;;;6.35;3.65;;;14.70;99.90;;;;;;4974025;28;20491;-73
2022/11/15 04:01:11;;;;;;;11.67;3.73;;;14.60;99.90;;;;;;4993030;28;20030;-73
2022/11/15 04:03:57;;;;;;;6.38;3.75;;;14.60;99.90;;;;;;4993529;28;20064;-73
2022/11/15 04:06:23;;;;;;;7.53;3.42;;;14.60;99.90;;;;;;4993462;28;20034;-73
2022/11/15 04:08:50;;;;;;;6.73;4.40;;;14.50;99.90;;;;;;4993534;28;20067;-73
2022/11/15 04:11:17;;;;;;;7.88;3.80;;;14.50;99.90;;;;;;4993829;28;20273;-72
2022/11/15 04:13:43;;;;;;;;;;;14.60;99.90;;;;;;4989774;28;20042;-72
2022/11/15 04:16:09;;;;;;;5.03;3.42;;;14.60;99.90;;;;;;4973949;28;19949;-73
2022/11/15 04:18:35;;;;;;;8.70;4.23;;;14.60;99.90;;;;;;4974075;28;20034;-73
2022/11/15 04:26:22;;;;;;;5.65;3.50;;;14.60;99.90;;;;;;5095263;28;20036;-73
2022/11/15 04:31:33;;;;;;;6.57;3.60;;;14.60;99.90;;;;;;5095805;28;20097;-73
2022/11/15 04:33:59;;;;;;;6.55;3.28;;;14.60;99.90;;;;;;5095232;28;20063;-73
2022/11/15 04:39:50;;;;;;;6.47;3.15;;;14.70;99.90;;;;;;5095634;28;20077;-73
2022/11/15 04:42:16;;;;;;;5.75;3.20;;;14.80;99.90;;;;;;5094899;28;20036;-73
2022/11/15 04:44:42;;;;;;;9.63;3.90;;;14.70;99.90;;;;;;5095487;28;20020;-73
2022/11/15 04:47:08;;;;;;;5.97;3.47;;;14.60;99.90;;;;;;5095022;28;20032;-73
2022/11/15 04:49:34;;;;;;;3.80;2.57;;;14.50;99.90;;;;;;5095593;28;20024;-73
2022/11/15 04:52:02;;;;;;;6.50;2.13;;;14.50;99.90;;;;;;5095159;28;20396;-73
2022/11/15 04:54:51;;;;;;;5.88;3.00;;;14.60;99.90;;;;;;5094654;28;20740;-73
2022/11/15 04:57:17;;;;;;;8.90;3.00;;;14.50;99.90;;;;;;5094030;28;20072;-73
2022/11/15 05:00:03;;;;;;;4.83;2.60;;;14.60;99.90;;;;;;5094972;28;20099;-73
2022/11/15 05:04:18;;;;;;;8.10;3.20;;;14.60;99.90;;;;;;5131778;27;20459;-73
2022/11/15 05:05:17;;;;;;;4.70;2.63;;;14.60;99.90;;;;;;5135311;27;20028;-73
2022/11/15 05:07:45;;;;;;;6.95;2.75;;;14.60;99.90;;;;;;5135608;27;20051;-73
2022/11/15 05:10:32;;;;;;;8.55;2.97;;;14.60;99.90;;;;;;5135887;27;20027;-73
2022/11/15 05:12:58;;;;;;;6.72;2.75;;;14.60;99.90;;;;;;5116834;27;20050;-73
2022/11/15 05:15:25;;;;;;;;;;;14.70;99.90;;;;;;5135325;27;20033;-73
2022/11/15 05:18:30;;;;;;;11.07;2.83;;;14.60;99.90;;;;;;5135859;27;19903;-73
2022/11/15 05:21:03;;;;;;;8.23;3.05;;;14.60;99.90;;;;;;5135681;27;20098;-73
2022/11/15 05:23:48;;;;;;;6.40;3.00;;;14.60;99.90;;;;;;5135522;27;20050;-73
2022/11/15 05:26:17;;;;;;;9.55;2.80;;;14.70;99.90;;;;;;5135975;27;20031;-73
2022/11/15 05:28:44;;;;;;;5.75;2.67;;;14.70;99.90;;;;;;5117109;27;20054;-72
2022/11/15 05:31:12;;;;;;;5.78;2.50;;;14.70;99.90;;;;;;5135463;27;20075;-73
2022/11/15 05:34:00;;;;;;;5.18;2.78;;;14.70;99.90;;;;;;5135335;27;20037;-73
2022/11/15 05:36:37;;;;;;;5.65;2.72;;;14.60;99.90;;;;;;5135259;27;20027;-73
2022/11/15 05:39:06;;;;;;;6.25;2.72;;;14.70;99.90;;;;;;5135088;27;20087;-73
2022/11/15 05:41:54;;;;;;;4.47;2.95;;;14.60;99.90;;;;;;5135296;27;20022;-73
2022/11/15 05:44:23;;;;;;;8.32;3.08;;;14.70;99.90;;;;;;5116832;27;20042;-72
2022/11/15 05:46:53;;;;;;;9.13;2.63;;;14.70;99.90;;;;;;5135063;27;20023;-73
2022/11/15 05:49:23;;;;;;;6.00;2.50;;;14.80;99.90;;;;;;5135563;27;20019;-71
2022/11/15 05:51:51;;;;;;;9.30;3.85;;;14.90;99.90;;;;;;5135391;27;20015;-71
2022/11/15 05:54:19;;;;;;;5.70;2.58;;;15.00;99.90;;;;;;5134807;27;20031;-71
2022/11/15 05:56:46;;;;;;;6.55;2.55;;;15.00;99.90;;;;;;5116379;27;20078;-70
2022/11/15 05:59:13;;;;;;;6.00;2.80;;;15.20;99.90;;;;;;5126369;27;20059;-71
2022/11/15 06:01:43;;;;;;;7.93;3.00;;;15.20;99.90;;;;;;5101015;28;20027;-72
2022/11/15 06:04:09;;;;;;;6.07;2.90;;;15.30;99.90;;;;;;5093114;28;20047;-72
2022/11/15 06:06:35;;;;;;;5.63;2.53;;;15.40;99.90;;;;;;5113686;28;20030;-72
2022/11/15 06:09:02;;;;;;;3.95;2.40;;;15.40;99.90;;;;;;5113443;28;20764;-72
2022/11/15 06:11:30;;;;;;;3.63;2.40;;;15.50;99.90;;;;;;5114157;28;20028;-73
2022/11/15 06:13:58;;;;;;;9.55;2.60;;;15.70;99.90;;;;;;5113603;28;20284;-72
2022/11/15 06:16:24;;;;;;;6.07;2.58;;;16.00;99.90;;;;;;5113881;28;20027;-72
2022/11/15 06:18:50;;;;;;;8.50;1.92;;;16.40;99.90;;;;;;5113446;28;20111;-73
2022/11/15 06:21:17;;;;;;;6.63;2.37;;;16.80;99.90;;;;;;5113016;28;20059;-72
2022/11/15 06:23:43;;;;;;;7.65;2.30;;;17.20;99.90;;;;;;5113233;28;20281;-73
2022/11/15 06:26:10;;;;;;;;;;;17.70;99.90;;;;;;5113807;28;20027;-72
2022/11/15 06:28:40;;;;;;;9.02;2.70;;;18.00;99.90;;;;;;5113833;28;19910;-73
2022/11/15 06:31:10;;;;;;;7.40;2.50;;;17.80;99.90;;;;;;5111092;28;20390;-71
2022/11/15 06:33:38;;;;;;;5.18;2.03;;;17.90;99.90;;;;;;5093923;28;20127;-72
2022/11/15 06:36:16;;;;;;;7.50;2.17;;;17.90;99.90;;;;;;5112424;28;20055;-73
2022/11/15 06:38:45;;;;;;;10.13;2.80;;;18.20;99.90;;;;;;5112648;28;20051;-73
2022/11/15 06:41:13;;;;;;;4.72;1.98;;;18.20;99.90;;;;;;5094087;28;20020;-70
2022/11/15 06:43:42;;;;;;;5.53;2.22;;;18.10;99.90;;;;;;5093259;28;20061;-71
2022/11/15 06:46:09;;;;;;;6.40;2.20;;;17.80;99.90;;;;;;5111905;28;20169;-71
2022/11/15 06:48:37;;;;;;;7.95;2.15;;;17.60;99.90;;;;;;5093641;28;20026;-72
2022/11/15 06:51:05;;;;;;;4.10;2.03;;;17.50;99.90;;;;;;5111162;28;20023;-70
2022/11/15 06:53:31;;;;;;;4.90;2.33;;;17.30;99.90;;;;;;5123147;27;20069;-71
2022/11/15 06:56:01;;;;;;;;;;;17.20;99.90;;;;;;5111908;28;20031;-71
2022/11/15 06:58:28;;;;;;;8.00;2.58;;;17.00;99.90;;;;;;5111285;28;19966;-73
2022/11/15 07:00:59;;;;;;;6.63;2.50;;;17.00;99.90;;;;;;5111205;28;20381;-80
2022/11/15 07:03:27;;;;;;;8.35;2.92;;;16.90;99.90;;;;;;5111995;28;20023;-78
2022/11/15 07:05:55;;;;;;;6.03;2.78;;;16.90;99.90;;;;;;5111720;28;20102;-77
2022/11/15 07:08:22;;;;;;;7.65;2.45;;;16.90;99.90;;;;;;5076552;28;20096;-78
2022/11/15 07:11:11;;;;;;;6.90;2.58;;;16.90;99.90;;;;;;5111365;28;20148;-78
2022/11/15 07:13:45;;;;;;;6.32;2.80;;;16.90;99.90;;;;;;5111934;28;20039;-78
2022/11/15 07:16:13;;;;;;;5.88;2.00;;;16.80;99.90;;;;;;5111732;28;20020;-76
2022/11/15 07:18:40;;;;;;;8.65;2.55;;;17.00;99.90;;;;;;5111597;28;20472;-76
2022/11/15 07:21:11;;;;;;;6.05;2.35;;;17.20;99.90;;;;;;5111210;28;20024;-75
2022/11/15 07:23:39;;;;;;;11.07;3.55;;;17.70;99.90;;;;;;5089251;22;20059;-76
2022/11/15 07:26:20;;;;;;;5.97;2.30;;;18.00;99.90;;;;;;5072932;28;20114;-76
2022/11/15 07:28:47;;;;;;;8.23;2.67;;;18.50;99.90;;;;;;5090269;28;20025;-75
2022/11/15 07:31:16;;;;;;;7.15;2.50;;;18.90;99.90;;;;;;5072326;28;20491;-70
2022/11/15 07:33:45;;;;;;;4.40;2.22;;;18.90;99.90;;;;;;5056550;28;20059;-76
2022/11/15 07:36:13;;;;;;;5.82;2.05;;;19.00;99.90;;;;;;5074985;28;20071;-76
2022/11/15 07:38:40;;;;;;;4.03;2.05;;;18.90;99.90;;;;;;5074663;28;20021;-75
2022/11/15 07:41:07;;;;;;;9.52;2.28;;;18.80;99.90;;;;;;5074878;28;20040;-75
2022/11/15 07:43:34;;;;;;;9.30;2.50;;;18.70;99.90;;;;;;5074688;28;20029;-77
2022/11/15 07:46:05;;;;;;;6.50;2.38;;;18.70;99.90;;;;;;5074681;28;20031;-76
2022/11/15 07:48:35;;;;;;;9.85;2.42;;;18.70;99.90;;;;;;5074918;28;20075;-76
2022/11/15 07:51:17;;;;;;;7.75;2.50;;;18.50;99.90;;;;;;5074654;28;20028;-76
2022/11/15 07:53:45;;;;;;;7.95;2.55;;;18.40;99.90;;;;;;5056663;28;20119;-76
2022/11/15 07:56:13;;;;;;;9.20;2.65;;;18.40;99.90;;;;;;5075027;28;20331;-77
2022/11/15 07:58:39;;;;;;;6.85;2.58;;;18.30;99.90;;;;;;5074701;28;20165;-76
2022/11/15 08:01:08;;;;;;;8.52;2.60;;;18.30;99.90;;;;;;5074452;28;20017;-76
2022/11/15 08:03:35;;;;;;;5.57;2.03;;;18.20;99.90;;;;;;5074572;28;20028;-76
2022/11/15 08:06:01;;;;;;;17.83;2.78;;;18.10;99.90;;;;;;5074457;28;20028;-76
2022/11/15 08:08:27;;;;;;;7.55;2.50;;;17.90;99.90;;;;;;5074152;28;20464;-75
2022/11/15 08:10:54;;;;;;;11.88;2.70;;;17.80;99.90;;;;;;5074691;28;20032;-76
2022/11/15 08:13:21;;;;;;;9.02;2.40;;;17.80;99.90;;;;;;5056547;28;20112;-76
2022/11/15 08:15:47;;;;;;;8.75;2.65;;;17.90;99.90;;;;;;5109066;28;20091;-76
2022/11/15 08:18:16;;;;;;;10.35;3.15;;;18.00;99.90;;;;;;5094488;28;20023;-73
2022/11/15 08:20:43;;;;;;;16.70;3.22;;;18.00;99.90;;;;;;5094656;28;20440;-76
2022/11/15 08:23:12;;;;;;;18.70;3.53;;;18.10;99.90;;;;;;5094707;28;20051;-76
2022/11/15 08:25:39;;;;;;;15.90;3.65;;;18.30;99.90;;;;;;5076235;28;20055;-75
2022/11/15 08:28:07;;;;;;;13.02;3.50;;;18.50;99.90;;;;;;5114220;28;20027;-76
2022/11/15 08:30:42;;;;;;;14.50;2.90;;;18.90;99.90;;;;;;5113293;28;20226;-76
2022/11/15 08:33:14;;;;;;;14.38;3.55;;;19.10;99.90;;;;;;5076074;28;20036;-76
2022/11/15 08:35:42;;;;;;;13.80;3.40;;;19.20;99.90;;;;;;5094422;28;20019;-76
2022/11/15 08:38:10;;;;;;;7.80;3.22;;;19.40;99.90;;;;;;5094410;28;20038;-75
2022/11/15 08:40:36;;;;;;;9.82;3.00;;;19.50;99.90;;;;;;5094511;28;20024;-76
2022/11/15 08:43:02;;;;;;;9.18;3.05;;;19.60;99.90;;;;;;5094043;28;20426;-75
2022/11/15 08:45:34;;;;;;;10.65;3.05;;;19.60;99.90;;;;;;5092992;28;20024;-77
2022/11/15 08:48:03;;;;;;;9.07;2.75;;;19.50;99.90;;;;;;5092973;28;20140;-76
2022/11/15 08:50:29;;;;;;;7.30;2.90;;;19.50;99.90;;;;;;5093044;28;20024;-75
2022/11/15 08:52:56;;;;;;;9.57;2.90;;;19.40;99.90;;;;;;5092750;28;20040;-76
2022/11/15 08:55:23;;;;;;;6.93;3.00;;;19.40;99.90;;;;;;5092746;28;20027;-76
2022/11/15 08:57:50;;;;;;;7.80;2.80;;;19.30;99.90;;;;;;5074680;28;20040;-76
2022/11/15 09:00:22;;;;;;;10.43;2.95;;;19.30;99.90;;;;;;5093018;28;20027;-75
2022/11/15 09:02:49;;;;;;;12.13;3.25;;;19.30;99.90;;;;;;5093421;28;20028;-76
2022/11/15 09:05:16;;;;;;;8.60;3.13;;;19.60;99.90;;;;;;5093360;28;20024;-76
2022/11/15 09:07:42;;;;;;;11.77;2.83;;;19.90;99.90;;;;;;5094246;28;20464;-76
2022/11/15 09:10:08;;;;;;;10.73;3.15;;;20.00;99.90;;;;;;5093781;28;20403;-76
2022/11/15 09:12:36;;;;;;;10.05;3.22;;;20.00;99.90;;;;;;5074948;28;20059;-76
2022/11/15 09:15:03;;;;;;;15.00;3.75;;;20.10;99.90;;;;;;5093184;28;20021;-75
2022/11/15 09:17:29;;;;;;;9.23;3.50;;;20.10;99.90;;;;;;5093437;28;20039;-75
2022/11/15 09:19:56;;;;;;;7.72;3.05;;;20.40;99.90;;;;;;5093628;28;20016;-75
2022/11/15 09:22:22;;;;;;;9.68;3.50;;;20.50;99.90;;;;;;5093635;28;20032;-76
2022/11/15 09:24:48;;;;;;;5.95;3.38;;;20.50;99.90;;;;;;5093820;28;20158;-75
2022/11/15 09:27:15;;;;;;;6.50;2.75;;;20.50;99.90;;;;;;5093343;28;20386;-75
2022/11/15 09:29:41;;;;;;;6.05;2.85;;;20.60;99.90;;;;;;5093420;28;20020;-75
2022/11/15 09:32:07;;;;;;;9.32;3.03;;;20.60;99.90;;;;;;5093675;28;20039;-74
2022/11/15 09:34:35;;;;;;;10.23;3.60;;;20.60;99.90;;;;;;5093405;28;20089;-76
2022/11/15 09:37:02;;;;;;;7.90;2.80;;;20.70;99.90;;;;;;5093209;28;20073;-75
2022/11/15 09:39:29;;;;;;;6.68;2.85;;;20.60;99.90;;;;;;5093074;28;20448;-74
2022/11/15 09:42:20;;;;;;;7.43;3.10;;;20.40;99.90;;;;;;5093523;28;20020;-75
2022/11/15 09:44:48;;;;;;;6.00;2.40;;;20.40;99.90;;;;;;5093513;28;20108;-75
2022/11/15 09:47:14;;;;;;;5.38;3.30;;;20.30;99.90;;;;;;5093535;28;20156;-75
2022/11/15 09:49:41;;;;;;;6.78;2.95;;;20.30;99.90;;;;;;5093081;28;20453;-75
2022/11/15 09:52:08;;;;;;;12.38;3.35;;;20.40;99.90;;;;;;5092666;28;20452;-75
2022/11/15 09:54:40;;;;;;;7.78;2.83;;;20.30;99.90;;;;;;5092029;28;20032;-75
2022/11/15 09:57:14;;;;;;;8.70;3.13;;;20.40;99.90;;;;;;5093160;28;20024;-75
2022/11/15 10:00:03;;;;;;;6.82;2.80;;;20.50;99.90;;;;;;5092822;28;20081;-74
2022/11/15 10:02:53;;;;;;;7.70;3.15;;;20.80;99.90;;;;;;5093124;28;20016;-75
2022/11/15 10:05:23;;;;;;;11.82;3.03;;;21.30;99.90;;;;;;5092193;28;20095;-74
2022/11/15 10:08:10;;;;;;;9.82;2.85;;;21.70;99.90;;;;;;5073020;28;20036;-74
2022/11/15 10:10:46;;;;;;;8.00;2.45;;;22.10;99.90;;;;;;5092348;28;20126;-75
2022/11/15 10:13:26;;;;;;;6.88;3.30;;;22.30;99.90;;;;;;5092222;28;20073;-74
2022/11/15 10:15:59;;;;;;;10.23;3.53;;;22.80;99.90;;;;;;5057500;28;20447;-74
2022/11/15 10:18:53;;;;;;;6.13;2.80;;;23.20;99.90;;;;;;5092476;28;20486;-73
2022/11/15 10:21:43;;;;;;;11.75;4.82;;;23.60;99.90;;;;;;5091830;28;20038;-77
2022/11/15 10:24:28;;;;;;;6.53;2.78;;;23.80;99.90;;;;;;5095833;28;20461;-85
2022/11/15 10:26:56;;;;;;;8.90;2.35;;;23.90;99.90;;;;;;5094573;28;20037;-77
2022/11/15 10:29:24;;;;;;;6.57;2.78;;;24.00;99.90;;;;;;5111692;28;20031;-78
2022/11/15 10:31:52;;;;;;;5.10;1.98;;;23.90;99.90;;;;;;5112795;28;20030;-78
2022/11/15 10:34:21;;;;;;;8.30;2.63;;;23.40;99.90;;;;;;5112662;28;20024;-77
2022/11/15 10:36:57;;;;;;;5.63;2.13;;;23.40;99.90;;;;;;5104726;28;20024;-77
2022/11/15 10:39:24;;;;;;;5.80;2.15;;;23.30;99.90;;;;;;5071673;28;20017;-78
2022/11/15 10:41:51;;;;;;;7.85;2.55;;;23.30;99.90;;;;;;5053320;28;20036;-78
2022/11/15 10:44:17;;;;;;;7.70;2.35;;;23.30;99.90;;;;;;5089693;28;20030;-78
2022/11/15 10:46:48;;;;;;;10.23;2.40;;;23.30;99.90;;;;;;5098580;28;20062;-78
2022/11/15 10:49:30;;;;;;;8.50;2.60;;;23.30;99.90;;;;;;5092376;28;20020;-79
2022/11/15 10:52:02;;;;;;;6.75;2.30;;;23.10;99.90;;;;;;5092360;28;20065;-78
2022/11/15 10:54:37;;;;;;;6.45;2.50;;;23.30;99.90;;;;;;5092482;28;20024;-78
2022/11/15 10:57:25;;;;;;;12.43;3.40;;;23.40;99.90;;;;;;5092571;28;20020;-78
2022/11/15 11:00:29;;;;;;;9.52;2.90;;;23.30;99.90;;;;;;5075710;28;20127;-80
2022/11/15 11:03:09;;;;;;;9.20;3.03;;;23.30;99.90;;;;;;5091934;28;20035;-78
2022/11/15 11:05:40;;;;;;;9.32;2.78;;;23.10;99.90;;;;;;5074232;28;20417;-79
2022/11/15 11:08:24;;;;;;;5.05;2.40;;;23.30;99.90;;;;;;5091568;28;20140;-81
2022/11/15 11:11:02;;;;;;;11.57;2.83;;;23.40;99.90;;;;;;5091503;28;20024;-78
2022/11/15 11:13:38;;;;;;;9.48;2.38;;;23.40;99.90;;;;;;5073349;28;20574;-76
2022/11/15 11:16:17;;;;;;;6.85;2.42;;;23.60;99.90;;;;;;5073786;28;20372;-79
2022/11/15 11:19:06;;;;;;;5.47;2.13;;;23.70;99.90;;;;;;5091202;28;20036;-79
2022/11/15 11:21:55;;;;;;;7.80;2.75;;;23.70;99.90;;;;;;5090969;28;20073;-79
2022/11/15 11:24:44;;;;;;;4.88;2.17;;;23.80;99.90;;;;;;5070479;28;20052;-78
2022/11/15 11:27:34;;;;;;;8.93;2.50;;;23.70;99.90;;;;;;5071481;28;20044;-78
2022/11/15 11:30:29;;;;;;;8.05;2.55;;;23.70;99.90;;;;;;5053662;28;20457;-78
2022/11/15 11:33:10;;;;;;;8.57;2.30;;;23.70;99.90;;;;;;5070602;28;20047;-79
2022/11/15 11:35:54;;;;;;;8.90;2.33;;;23.90;99.90;;;;;;5053553;28;20036;-79
2022/11/15 11:38:38;;;;;;;7.50;2.30;;;23.90;99.90;;;;;;5070907;28;20033;-74
2022/11/15 11:41:28;;;;;;;6.80;2.70;;;23.70;99.90;;;;;;5071192;28;20028;-79
2022/11/15 11:44:19;;;;;;;6.88;2.20;;;23.40;99.90;;;;;;5071308;28;20326;-79
2022/11/15 11:47:10;;;;;;;5.43;2.35;;;23.50;99.90;;;;;;5052985;28;20358;-79
2022/11/15 11:49:36;;;;;;;5.70;2.08;;;23.60;99.90;;;;;;5070963;28;20047;-79
2022/11/15 11:52:43;;;;;;;6.30;1.90;;;23.70;99.90;;;;;;5070920;28;20329;-79
2022/11/15 11:55:26;;;;;;;9.70;2.45;;;23.70;99.90;;;;;;5070924;28;20132;-78
2022/11/15 11:58:13;;;;;;;8.65;2.50;;;23.70;99.90;;;;;;5052888;28;20078;-79
2022/11/15 12:01:00;;;;;;;5.82;2.20;;;23.40;99.90;;;;;;5052594;28;20029;-79
2022/11/15 12:03:39;;;;;;;8.52;2.25;;;23.40;99.90;;;;;;5070843;28;20086;-78
2022/11/15 12:06:29;;;;;;;6.88;2.05;;;23.30;99.90;;;;;;5070973;28;20494;-78
2022/11/15 12:09:02;;;;;;;12.70;2.75;;;23.10;99.90;;;;;;5052330;28;20036;-77
2022/11/15 12:11:56;;;;;;;8.30;2.40;;;22.90;99.90;;;;;;5070708;28;20181;-77
2022/11/15 12:14:31;;;;;;;5.43;2.20;;;22.70;99.90;;;;;;5051418;28;20349;-78
2022/11/15 12:16:58;;;;;;;11.75;2.70;;;22.70;99.90;;;;;;5051743;28;20104;-78
2022/11/15 12:19:25;;;;;;;8.63;2.65;;;22.80;99.90;;;;;;5055070;28;20044;-78
2022/11/15 12:22:21;;;;;;;10.07;3.30;;;22.80;99.90;;;;;;5074128;28;20206;-78
2022/11/15 12:25:00;;;;;;;6.93;2.92;;;23.10;99.90;;;;;;5074284;28;20154;-77
2022/11/15 12:27:47;;;;;;;9.23;3.42;;;23.00;99.90;;;;;;5074210;28;20021;-78
2022/11/15 12:30:18;;;;;;;5.65;2.60;;;23.20;99.90;;;;;;5056156;28;20079;-78
2022/11/15 12:32:57;;;;;;;11.40;2.70;;;23.40;99.90;;;;;;5055570;28;20045;-78
2022/11/15 12:35:34;;;;;;;8.02;2.35;;;23.50;99.90;;;;;;5074590;28;20052;-78
2022/11/15 12:38:01;;;;;;;7.50;2.45;;;23.70;99.90;;;;;;5074500;28;20337;-78
2022/11/15 12:40:31;;;;;;;9.85;5.05;;;23.80;99.90;;;;;;5073658;28;20037;-79
2022/11/15 12:42:57;;;;;;;11.75;2.78;;;23.80;99.90;;;;;;5074144;28;20024;-78
2022/11/15 12:45:34;;;;;;;8.15;2.10;;;23.80;99.90;;;;;;5074036;28;20033;-77
2022/11/15 12:48:35;;;;;;;4.85;2.25;;;23.80;99.90;;;;;;5074387;28;20457;-77
2022/11/15 12:51:02;;;;;;;6.35;2.50;;;23.70;99.90;;;;;;5074619;28;20466;-77
2022/11/15 12:53:33;;;;;;;6.65;2.13;;;23.60;99.90;;;;;;5074286;28;20503;-82
2022/11/15 12:56:23;;;;;;;6.93;2.50;;;23.40;99.90;;;;;;5058649;28;20040;-82
2022/11/15 12:58:56;;;;;;;6.78;2.20;;;23.40;99.90;;;;;;4993100;28;20039;-82
2022/11/15 13:01:37;;;;;;;5.60;2.35;;;23.50;99.90;;;;;;4989904;28;20057;-79
2022/11/15 13:04:21;;;;;;;6.00;1.88;;;23.60;99.90;;;;;;4991906;28;20107;-77
2022/11/15 13:06:51;;;;;;;5.47;1.90;;;23.50;99.90;;;;;;4993063;28;20038;-78
2022/11/15 13:09:32;;;;;;;11.38;2.38;;;23.40;99.90;;;;;;4976230;28;20115;-78
2022/11/15 13:12:30;;;;;;;6.70;2.13;;;23.40;99.90;;;;;;4969876;28;20058;-77
2022/11/15 13:15:40;;;;;;;6.65;2.28;;;23.30;99.90;;;;;;4973079;28;20039;-78
2022/11/15 13:18:35;;;;;;;4.47;1.67;;;23.10;99.90;;;;;;4973355;28;20059;-78
2022/11/15 13:22:50;;;;;;;11.80;2.22;;;23.00;99.90;;;;;;4973643;28;20035;-78
2022/11/15 13:23:54;;;;;;;6.68;1.92;;;22.90;99.90;;;;;;4973452;28;20051;-79
2022/11/15 13:26:27;;;;;;;6.82;2.08;;;22.90;99.90;;;;;;4973184;28;20035;-77
2022/11/15 13:28:55;;;;;;;5.75;1.95;;;22.80;99.90;;;;;;4956911;28;20035;-78
2022/11/15 13:31:32;;;;;;;5.40;1.98;;;22.80;99.90;;;;;;4973113;28;20035;-78
2022/11/15 13:34:03;;;;;;;6.13;2.30;;;22.70;99.90;;;;;;4973463;28;20084;-78
2022/11/15 13:36:34;;;;;;;5.75;1.75;;;22.80;99.90;;;;;;5044733;28;20074;-78